Time;durP1;ratioP1;P1;durP2;ratioP2;P2;SDS_P1;SDS_P2;PMS_P1;PMS_P2;Temp;Humidity;BMP_temperature;BMP_pressure;BME280_temperature;BME280_humidity;BME280_pressure;Samples;Min_cycle;Max_cycle;Signal;HPM_P1;HPM_P2
2022/01/15 00:00:43;;;;;;;;;135.50;118.00;;;;;6.33;60.37;102558.19;5024394;28;45562;-44
2022/01/15 00:03:10;;;;;;;;;131.50;118.75;;;;;6.31;60.54;102559.91;5041977;28;45246;-47
2022/01/15 00:05:36;;;;;;;;;123.00;111.50;;;;;6.27;60.55;102544.94;5041999;28;45190;-47
2022/01/15 00:08:03;;;;;;;;;130.75;122.50;;;;;6.28;60.45;102543.25;5027600;28;46032;-46
2022/01/15 00:10:29;;;;;;;;;145.50;125.50;;;;;6.27;60.53;102546.69;5042295;28;45284;-48
2022/01/15 00:12:56;;;;;;;;;143.75;124.50;;;;;6.26;60.29;102544.91;5062109;28;45351;-47
2022/01/15 00:15:28;;;;;;;;;128.75;119.75;;;;;6.26;60.65;102550.13;5061861;28;46364;-45
2022/01/15 00:17:59;;;;;;;;;121.75;110.25;;;;;6.25;60.28;102548.34;5061984;28;45221;-45
2022/01/15 00:20:26;;;;;;;;;120.75;111.75;;;;;6.21;60.42;102543.88;5061876;28;45376;-44
2022/01/15 00:22:53;;;;;;;;;113.67;106.33;;;;;6.22;60.43;102540.44;5061935;28;45320;-45
2022/01/15 00:25:21;;;;;;;;;126.50;114.00;;;;;6.17;60.50;102543.75;5061407;28;45222;-46
2022/01/15 00:27:46;;;;;;;;;109.33;104.33;;;;;6.17;60.55;102543.75;5061843;28;45306;-47
2022/01/15 00:30:14;;;;;;;;;126.33;113.67;;;;;6.17;60.45;102545.50;5061848;28;45394;-44
2022/01/15 00:32:40;;;;;;;;;124.33;105.33;;;;;6.15;60.68;102541.94;5061843;28;45242;-45
2022/01/15 00:35:08;;;;;;;;;118.67;99.33;;;;;6.14;60.54;102534.97;5061609;28;46277;-47
2022/01/15 00:37:34;;;;;;;;;115.67;98.33;;;;;6.13;60.67;102535.78;5061803;28;45149;-48
2022/01/15 00:40:00;;;;;;;;;107.67;98.33;;;;;6.13;60.59;102538.41;5061189;28;45315;-47
2022/01/15 00:42:28;;;;;;;;;113.33;103.67;;;;;6.11;60.50;102537.44;5061670;28;45494;-48
2022/01/15 00:44:55;;;;;;;;;112.67;103.00;;;;;6.10;60.74;102526.13;5061467;28;46994;-48
2022/01/15 00:47:21;;;;;;;;;124.67;106.33;;;;;6.07;60.47;102518.19;5060959;28;45225;-49
2022/01/15 00:49:46;;;;;;;;;124.00;109.33;;;;;6.11;60.59;102529.63;5043358;28;45332;-46
2022/01/15 00:52:12;;;;;;;;;123.33;104.00;;;;;6.08;60.58;102525.19;5061608;28;45206;-44
2022/01/15 00:54:37;;;;;;;;;124.67;109.33;;;;;6.07;60.53;102523.41;5060953;28;46362;-45
2022/01/15 00:57:03;;;;;;;;;83.00;62.75;;;;;6.05;60.71;102516.38;5061449;28;45146;-47
2022/01/15 00:59:28;;;;;;;;;132.00;117.25;;;;;6.04;60.82;102512.88;5061199;28;45220;-48
2022/01/15 01:01:53;;;;;;;;;119.33;105.00;;;;;6.04;60.80;102514.59;5061238;28;45566;-47
2022/01/15 01:04:19;;;;;;;;;122.00;111.25;;;;;6.01;60.73;102512.75;5061074;28;45424;-47
2022/01/15 01:06:44;;;;;;;;;126.00;115.75;;;;;6.02;60.60;102522.38;5061069;28;45359;-49
2022/01/15 01:09:10;;;;;;;;;126.25;112.75;;;;;6.00;60.72;102509.28;5044212;28;45357;-47
2022/01/15 01:11:51;;;;;;;;;123.33;111.00;;;;;5.99;60.72;102506.63;5040961;28;45262;-48
2022/01/15 01:22:58;;;;;;;;;120.75;106.50;;;;;5.94;60.99;102503.81;5031581;28;45560;-48
2022/01/15 01:25:28;;;;;;;;;127.75;105.75;;;;;5.93;60.81;102495.94;5040263;28;46055;-50
2022/01/15 01:27:57;;;;;;;;;136.50;114.00;;;;;5.93;60.75;102490.72;5040737;28;45407;-46
2022/01/15 01:30:28;;;;;;;;;131.50;116.00;;;;;5.91;60.95;102481.94;5053492;28;45272;-49
2022/01/15 01:33:04;;;;;;;;;131.50;112.50;;;;;5.90;60.76;102494.13;5049937;28;45449;-49
2022/01/15 01:35:35;;;;;;;;;124.00;105.67;;;;;5.87;60.89;102483.56;5040650;28;46070;-49
2022/01/15 01:38:11;;;;;;;;;134.33;106.67;;;;;5.86;60.97;102480.09;5040781;28;45407;-48
2022/01/15 01:40:45;;;;;;;;;138.50;117.00;;;;;5.85;60.90;102474.81;5022383;28;45242;-46
2022/01/15 01:45:49;;;;;;;;;122.00;112.75;;;;;5.80;60.87;102469.44;5040544;28;45309;-48
2022/01/15 01:48:14;;;;;;;;;132.50;110.75;;;;;5.80;60.75;102469.44;5040377;28;45571;-47
2022/01/15 01:50:40;;;;;;;;;127.75;115.50;;;;;5.78;60.91;102465.00;5031737;28;45376;-47
2022/01/15 01:53:05;;;;;;;;;118.33;105.00;;;;;5.75;60.94;102463.19;5040178;28;45282;-46
2022/01/15 01:55:31;;;;;;;;;125.25;107.25;;;;;5.73;60.79;102462.25;5040096;28;45333;-46
2022/01/15 01:57:58;;;;;;;;;126.50;114.50;;;;;5.75;60.78;102471.00;5039558;28;45242;-47
2022/01/15 02:00:26;;;;;;;;;124.50;112.00;;;;;5.74;61.02;102468.38;5040126;28;45475;-45
2022/01/15 02:02:53;;;;;;;;;126.75;114.25;;;;;5.73;60.88;102466.59;5040140;28;45254;-46
2022/01/15 02:05:19;;;;;;;;;142.75;127.25;;;;;5.72;60.88;102465.69;5040308;28;45262;-45
2022/01/15 02:07:45;;;;;;;;;152.00;131.00;;;;;5.71;60.89;102458.72;5040084;28;45772;-49
2022/01/15 02:10:14;;;;;;;;;163.50;134.75;;;;;5.70;60.96;102457.81;5030171;28;45408;-48
2022/01/15 02:12:39;;;;;;;;;153.75;138.00;;;;;5.69;61.25;102455.16;5039884;28;45518;-48
2022/01/15 02:15:16;;;;;;;;;149.50;137.50;;;;;5.68;60.93;102450.78;5040102;28;46107;-48
2022/01/15 02:17:43;;;;;;;;;167.00;144.25;;;;;5.67;60.79;102452.50;5022132;28;45279;-45
2022/01/15 02:25:47;;;;;;;;;147.25;135.00;;;;;5.61;60.89;102451.38;5039414;28;45227;-47
2022/01/15 02:28:14;;;;;;;;;178.75;151.75;;;;;5.58;60.87;102446.09;5039874;28;45436;-45
2022/01/15 02:30:39;;;;;;;;;171.50;148.75;;;;;5.52;60.72;102444.13;5039766;28;45251;-45
2022/01/15 02:33:06;;;;;;;;;160.75;146.00;;;;;5.52;61.13;102445.03;5021993;28;45325;-46
2022/01/15 02:35:32;;;;;;;;;153.75;137.50;;;;;5.50;60.89;102451.03;5039601;28;46925;-45
2022/01/15 02:38:07;;;;;;;;;153.50;132.75;;;;;5.48;60.77;102444.88;5039851;28;45336;-45
2022/01/15 02:40:35;;;;;;;;;164.00;140.50;;;;;5.43;61.04;102436.88;5047433;28;45393;-45
2022/01/15 02:43:11;;;;;;;;;159.00;143.00;;;;;5.44;60.92;102441.28;5059746;28;45596;-46
2022/01/15 02:45:39;;;;;;;;;162.00;144.00;;;;;5.43;61.00;102443.84;5059760;28;46983;-46
2022/01/15 02:48:14;;;;;;;;;168.00;149.25;;;;;5.41;61.13;102438.56;5041532;28;45957;-45
2022/01/15 02:50:40;;;;;;;;;168.50;138.75;;;;;5.39;60.85;102437.63;5049344;28;45443;-47
2022/01/15 02:53:07;;;;;;;;;152.50;129.75;;;;;5.39;61.00;102431.53;5039486;28;45500;-47
2022/01/15 02:55:33;;;;;;;;;146.25;127.50;;;;;5.37;61.07;102426.25;5039367;28;45426;-45
2022/01/15 02:57:58;;;;;;;;;160.50;137.50;;;;;5.36;61.02;102427.97;5021448;28;45343;-47
2022/01/15 03:00:25;;;;;;;;;145.00;129.75;;;;;5.34;61.23;102431.38;5039640;28;45428;-45
2022/01/15 03:02:50;;;;;;;;;146.75;128.75;;;;;5.33;60.95;102427.88;5039388;28;45467;-45
2022/01/15 03:05:16;;;;;;;;;148.75;132.75;;;;;5.31;61.17;102416.50;5039555;28;45208;-45
2022/01/15 03:07:41;;;;;;;;;142.50;128.25;;;;;5.30;61.15;102417.34;5039312;28;45265;-45
2022/01/15 03:10:08;;;;;;;;;132.50;118.25;;;;;5.29;61.12;102412.09;5040630;28;45215;-46
2022/01/15 03:12:35;;;;;;;;;134.00;121.25;;;;;5.24;61.17;102405.81;5025941;28;45483;-46
2022/01/15 03:15:02;;;;;;;;;143.75;122.50;;;;;5.27;61.14;102411.13;5052021;28;45974;-47
2022/01/15 03:17:28;;;;;;;;;131.00;116.75;;;;;5.25;61.13;102403.25;5042691;28;45486;-47
2022/01/15 03:19:53;;;;;;;;;142.50;124.50;;;;;5.23;61.32;102404.91;5042817;28;45396;-46
2022/01/15 03:22:19;;;;;;;;;138.25;117.75;;;;;5.21;60.90;102401.41;5042633;28;45261;-46
2022/01/15 03:24:44;;;;;;;;;126.00;112.00;;;;;5.19;61.24;102400.44;5042354;28;45311;-47
2022/01/15 03:27:10;;;;;;;;;123.75;112.75;;;;;5.14;61.20;102396.78;5042623;28;45396;-45
2022/01/15 03:29:35;;;;;;;;;123.25;109.50;;;;;5.14;61.23;102397.66;5042801;28;45428;-47
2022/01/15 03:32:02;;;;;;;;;134.00;116.50;;;;;5.11;61.13;102391.50;5042590;28;45174;-44
2022/01/15 03:34:27;;;;;;;;;133.00;115.00;;;;;5.10;61.10;102397.53;5024621;28;47181;-46
2022/01/15 03:36:52;;;;;;;;;136.75;117.50;;;;;5.08;61.02;102386.16;5042502;28;45143;-47
2022/01/15 03:39:18;;;;;;;;;125.25;112.00;;;;;5.07;61.16;102387.88;5042254;28;45205;-47
2022/01/15 03:41:43;;;;;;;;;125.50;109.25;;;;;5.03;61.14;102384.28;5042327;28;45208;-46
2022/01/15 03:44:08;;;;;;;;;115.00;106.00;;;;;5.01;60.96;102375.50;5042495;28;46112;-45
2022/01/15 03:46:34;;;;;;;;;139.75;115.00;;;;;5.00;60.88;102378.94;5042207;28;45344;-47
2022/01/15 03:48:59;;;;;;;;;120.50;106.00;;;;;5.00;61.08;102378.06;5048210;28;45238;-48
2022/01/15 03:51:25;;;;;;;;;114.00;99.75;;;;;4.99;61.08;102373.69;5041008;28;45332;-46
2022/01/15 03:53:50;;;;;;;;;124.25;110.50;;;;;4.97;60.93;102370.13;5041957;28;46187;-45
2022/01/15 03:56:16;;;;;;;;;129.25;118.50;;;;;4.97;61.11;102373.66;5042165;28;45348;-45
2022/01/15 03:58:41;;;;;;;;;123.75;109.75;;;;;4.96;61.26;102371.00;5042362;28;45249;-44
2022/01/15 04:01:06;;;;;;;;;141.50;118.75;;;;;4.95;60.95;102369.22;5042058;28;45452;-45
2022/01/15 04:03:32;;;;;;;;;135.00;115.00;;;;;4.94;61.00;102372.66;5042098;28;46291;-46
2022/01/15 04:05:57;;;;;;;;;129.50;112.25;;;;;4.90;61.35;102360.34;5041877;28;45339;-47
2022/01/15 04:08:23;;;;;;;;;133.00;116.25;;;;;4.90;61.32;102350.81;5024295;28;45358;-44
2022/01/15 04:10:48;;;;;;;;;134.75;122.75;;;;;4.92;61.13;102353.47;5020674;28;45508;-45
2022/01/15 04:13:15;;;;;;;;;152.75;139.50;;;;;4.91;61.04;102346.50;5042117;28;45376;-44
2022/01/15 04:15:42;;;;;;;;;145.00;125.50;;;;;4.89;60.92;102349.03;5041809;28;45269;-45
2022/01/15 04:18:07;;;;;;;;;133.25;121.00;;;;;4.87;61.20;102348.09;5042064;28;45225;-44
2022/01/15 04:20:32;;;;;;;;;135.00;122.75;;;;;4.87;61.08;102356.78;5041668;28;45294;-44
2022/01/15 04:22:58;;;;;;;;;121.25;108.00;;;;;4.87;61.05;102350.72;5040809;28;45235;-45
2022/01/15 04:25:23;;;;;;;;;124.75;111.75;;;;;4.84;61.08;102348.88;5023389;28;45692;-44
2022/01/15 04:27:49;;;;;;;;;114.75;104.50;;;;;4.83;61.27;102341.00;5041916;28;45521;-45
2022/01/15 04:30:16;;;;;;;;;96.33;82.33;;;;;4.81;61.16;102340.94;5041757;28;45538;-46
2022/01/15 04:32:42;;;;;;;;;105.00;97.00;;;;;4.79;61.11;102336.50;5041531;28;47088;-46
2022/01/15 04:35:08;;;;;;;;;100.67;91.67;;;;;4.78;61.38;102334.75;5041517;28;45348;-48
2022/01/15 04:37:44;;;;;;;;;95.33;84.33;;;;;4.77;61.04;102336.47;5041819;28;45262;-46
2022/01/15 04:40:11;;;;;;;;;100.00;89.33;;;;;4.75;61.16;102335.53;5040940;28;45320;-47
2022/01/15 04:42:36;;;;;;;;;106.67;91.67;;;;;4.76;61.04;102328.59;5041544;28;45510;-45
2022/01/15 04:45:03;;;;;;;;;103.00;91.00;;;;;4.75;61.35;102327.69;5041327;28;45269;-44
2022/01/15 04:47:29;;;;;;;;;96.67;85.67;;;;;4.74;61.08;102327.66;5041579;28;45310;-46
2022/01/15 04:49:55;;;;;;;;;109.00;95.67;;;;;4.72;61.03;102320.66;5049438;28;45463;-47
2022/01/15 04:52:22;;;;;;;;;94.67;82.00;;;;;4.70;61.33;102322.34;5041355;28;45425;-48
2022/01/15 04:54:47;;;;;;;;;98.33;85.33;;;;;4.69;61.36;102314.47;5040957;28;45404;-47
2022/01/15 04:57:13;;;;;;;;;97.00;81.33;;;;;4.67;61.20;102308.34;5041483;28;45872;-46
2022/01/15 04:59:38;;;;;;;;;94.67;80.67;;;;;4.67;61.38;102316.16;5040837;28;45288;-46
2022/01/15 05:02:04;;;;;;;;;95.33;82.67;;;;;4.66;61.38;102311.75;5043390;28;48252;-48
2022/01/15 05:04:29;;;;;;;;;101.33;85.67;;;;;4.65;61.33;102317.81;5024843;28;45334;-45
2022/01/15 05:06:54;;;;;;;;;98.67;82.67;;;;;4.63;61.11;102309.94;5041190;28;45258;-47
2022/01/15 05:09:20;;;;;;;;;95.33;80.00;;;;;4.64;61.25;102316.03;5040600;28;45527;-44
2022/01/15 05:11:58;;;;;;;;;103.00;87.00;;;;;4.62;61.23;102313.38;5040997;28;46170;-46
2022/01/15 05:14:24;;;;;;;;;107.00;91.67;;;;;4.61;61.11;102305.50;5040842;28;45278;-47
2022/01/15 05:16:49;;;;;;;;;107.67;89.33;;;;;4.61;61.28;102310.72;5041176;28;45225;-48
2022/01/15 05:19:14;;;;;;;;;96.00;81.67;;;;;4.58;61.50;102310.59;5040744;28;45218;-46
2022/01/15 05:21:40;;;;;;;;;97.67;83.33;;;;;4.58;61.30;102300.19;5040757;28;45503;-47
2022/01/15 05:24:06;;;;;;;;;101.67;90.00;;;;;4.56;61.21;102298.41;5040243;28;45313;-48
2022/01/15 05:26:32;;;;;;;;;102.33;85.00;;;;;4.58;61.15;102302.78;5040876;28;45304;-47
2022/01/15 05:28:57;;;;;;;;;115.67;97.67;;;;;4.57;61.21;102304.50;5040680;28;45423;-45
2022/01/15 05:31:24;;;;;;;;;100.00;87.67;;;;;4.59;61.30;102304.56;5040620;28;46114;-46
2022/01/15 05:33:50;;;;;;;;;108.67;93.67;;;;;4.61;61.47;102310.72;5022474;28;45338;-47
2022/01/15 05:36:15;;;;;;;;;108.33;93.33;;;;;4.60;61.09;102312.41;5040960;28;45292;-47
2022/01/15 05:38:41;;;;;;;;;103.33;93.67;;;;;4.62;61.12;102307.28;5040387;28;45298;-47
2022/01/15 05:41:06;;;;;;;;;110.00;93.67;;;;;4.60;61.12;102314.16;5022504;28;45274;-49
2022/01/15 05:43:32;;;;;;;;;122.00;109.33;;;;;4.62;61.16;102317.72;5040489;28;45448;-49
2022/01/15 05:45:57;;;;;;;;;130.75;116.00;;;;;4.63;61.28;102316.84;5040864;28;45225;-48
2022/01/15 05:48:22;;;;;;;;;134.50;124.25;;;;;4.62;61.24;102312.50;5040909;28;46099;-48
2022/01/15 05:50:48;;;;;;;;;144.50;125.00;;;;;4.62;61.10;102309.91;5049323;28;45279;-50
2022/01/15 05:53:13;;;;;;;;;131.75;118.00;;;;;4.61;60.96;102315.94;5040324;28;45253;-48
2022/01/15 05:55:39;;;;;;;;;130.50;112.75;;;;;4.59;61.02;102312.38;5040278;28;45246;-47
2022/01/15 05:58:06;;;;;;;;;144.50;128.00;;;;;4.59;61.34;102317.59;5022274;28;45246;-47
2022/01/15 06:00:32;;;;;;;;;146.50;127.00;;;;;4.62;61.17;102315.09;5040161;28;46352;-46
2022/01/15 06:02:57;;;;;;;;;145.50;127.75;;;;;4.62;61.33;102315.09;5040154;28;45246;-44
2022/01/15 06:05:22;;;;;;;;;145.00;127.25;;;;;4.61;61.48;102324.63;5040593;28;45269;-47
2022/01/15 06:07:48;;;;;;;;;162.00;140.75;;;;;4.62;61.28;102315.97;5021915;28;45442;-44
2022/01/15 06:10:13;;;;;;;;;161.25;137.25;;;;;4.62;60.99;102318.59;5039834;28;45264;-47
2022/01/15 06:12:45;;;;;;;;;161.75;140.50;;;;;4.65;61.19;102323.00;5040026;28;45448;-45
2022/01/15 06:15:12;;;;;;;;;154.50;137.75;;;;;4.64;61.36;102318.63;5040469;28;45340;-47
2022/01/15 06:17:38;;;;;;;;;116.50;106.25;;;;;4.64;61.13;102332.56;5039957;28;45484;-44
2022/01/15 06:20:04;;;;;;;;;147.50;129.25;;;;;4.64;61.27;102329.03;5039843;28;46302;-44
2022/01/15 06:22:29;;;;;;;;;156.75;131.50;;;;;4.63;61.10;102329.88;5039778;28;45301;-45
2022/01/15 06:24:55;;;;;;;;;148.50;130.50;;;;;4.60;61.31;102328.03;5021959;28;45337;-46
2022/01/15 06:27:20;;;;;;;;;144.50;125.50;;;;;4.61;61.12;102316.81;5039906;28;45521;-45
2022/01/15 06:29:46;;;;;;;;;163.25;137.50;;;;;4.61;61.24;102321.13;5039767;28;46124;-44
2022/01/15 06:32:12;;;;;;;;;134.50;117.50;;;;;4.60;61.22;102320.22;5039785;28;45210;-45
2022/01/15 06:34:38;;;;;;;;;149.00;132.00;;;;;4.60;61.26;102320.22;5040005;28;45171;-48
2022/01/15 06:37:04;;;;;;;;;136.75;121.25;;;;;4.59;61.04;102308.06;5039731;28;45360;-47
2022/01/15 06:39:33;;;;;;;;;150.75;128.00;;;;;4.58;61.02;102321.91;5039200;28;46302;-45
2022/01/15 06:41:59;;;;;;;;;147.50;128.75;;;;;4.56;60.83;102316.63;5039631;28;45334;-45
2022/01/15 06:44:25;;;;;;;;;159.50;135.50;;;;;4.55;61.16;102317.47;5040193;28;45460;-44
2022/01/15 06:46:50;;;;;;;;;149.50;131.75;;;;;4.52;61.35;102306.94;5043240;28;45221;-44
2022/01/15 06:49:15;;;;;;;;;157.00;143.00;;;;;4.51;61.30;102305.16;5033427;28;45343;-44
2022/01/15 06:51:41;;;;;;;;;152.50;133.75;;;;;4.49;61.31;102303.34;5043323;28;45251;-46
2022/01/15 06:54:06;;;;;;;;;149.00;126.75;;;;;4.47;61.27;102311.09;5043175;28;45216;-47
2022/01/15 06:56:32;;;;;;;;;142.50;128.50;;;;;4.45;61.29;102307.53;5008841;28;45207;-47
2022/01/15 06:58:57;;;;;;;;;133.50;119.50;;;;;4.38;61.39;102293.44;5043221;28;45294;-45
2022/01/15 07:01:23;;;;;;;;;135.00;119.75;;;;;4.43;61.67;102303.13;5025083;28;45192;-47
2022/01/15 07:03:49;;;;;;;;;135.75;116.50;;;;;4.43;61.23;102301.41;5043094;28;45242;-46
2022/01/15 07:06:14;;;;;;;;;141.75;128.00;;;;;4.43;61.25;102293.59;5042784;28;45523;-47
2022/01/15 07:08:40;;;;;;;;;136.25;123.00;;;;;4.41;61.50;102287.44;5042510;28;47028;-45
2022/01/15 07:11:05;;;;;;;;;145.25;126.00;;;;;4.38;61.44;102288.22;5040587;28;45425;-50
2022/01/15 07:13:30;;;;;;;;;151.75;129.75;;;;;4.36;61.21;102278.59;5042987;28;45486;-49
2022/01/15 07:15:56;;;;;;;;;124.00;116.25;;;;;4.37;61.17;102280.38;5042712;28;45285;-47
2022/01/15 07:18:21;;;;;;;;;112.67;102.00;;;;;4.36;61.25;102282.06;5042752;28;46930;-47
2022/01/15 07:20:46;;;;;;;;;114.67;99.00;;;;;4.35;61.17;102277.72;5042517;28;45469;-46
2022/01/15 07:23:12;;;;;;;;;116.00;105.67;;;;;4.36;61.58;102270.78;5025082;28;45586;-46
2022/01/15 07:25:37;;;;;;;;;105.67;93.33;;;;;4.34;61.26;102268.13;5042269;28;45272;-45
2022/01/15 07:28:03;;;;;;;;;107.33;98.67;;;;;4.34;61.45;102275.94;5042623;28;47004;-46
2022/01/15 07:30:28;;;;;;;;;125.33;101.00;;;;;4.33;61.10;102273.28;5055965;28;45305;-46
2022/01/15 07:32:53;;;;;;;;;107.00;96.00;;;;;4.31;61.44;102272.34;5042786;28;45431;-45
2022/01/15 07:35:19;;;;;;;;;120.67;104.67;;;;;4.33;61.41;102284.56;5042604;28;45312;-46
2022/01/15 07:37:45;;;;;;;;;115.33;102.00;;;;;4.33;61.41;102281.97;5042497;28;45265;-44
2022/01/15 07:40:11;;;;;;;;;114.00;101.67;;;;;4.35;61.56;102266.41;5041895;28;45321;-47
2022/01/15 07:42:38;;;;;;;;;111.67;97.67;;;;;4.32;61.49;102272.38;5042843;28;45424;-47
2022/01/15 07:45:09;;;;;;;;;110.00;96.67;;;;;4.35;61.18;102266.41;5042370;28;45467;-47
2022/01/15 07:47:36;;;;;;;;;125.67;107.00;;;;;4.35;61.54;102276.81;5042527;28;46963;-45
2022/01/15 07:50:03;;;;;;;;;132.75;118.00;;;;;4.34;61.24;102282.84;5033372;28;45421;-46
2022/01/15 07:52:28;;;;;;;;;125.00;108.00;;;;;4.34;61.44;102275.03;5042410;28;45211;-45
2022/01/15 07:54:54;;;;;;;;;111.33;100.33;;;;;4.33;61.52;102257.66;5041786;28;45410;-44
2022/01/15 07:57:19;;;;;;;;;129.75;114.25;;;;;4.33;61.76;102265.47;5022955;28;47528;-46
2022/01/15 07:59:45;;;;;;;;;118.50;101.25;;;;;4.32;61.63;102271.50;5023946;28;45402;-50
2022/01/15 08:02:10;;;;;;;;;116.75;102.75;;;;;4.32;61.66;102276.72;5042352;28;45399;-47
2022/01/15 08:04:35;;;;;;;;;117.75;104.50;;;;;4.32;61.60;102274.13;5041971;28;45329;-44
2022/01/15 08:07:01;;;;;;;;;106.67;96.33;;;;;4.31;61.87;102274.94;5041766;28;45336;-47
2022/01/15 08:09:26;;;;;;;;;116.33;96.33;;;;;4.31;61.68;102270.59;5023476;28;45333;-48
2022/01/15 08:11:51;;;;;;;;;122.75;113.00;;;;;4.32;61.67;102271.50;5042165;28;45360;-47
2022/01/15 08:14:17;;;;;;;;;109.33;98.00;;;;;4.33;61.53;102266.34;5041818;28;45538;-45
2022/01/15 08:16:42;;;;;;;;;114.33;99.67;;;;;4.32;61.67;102272.38;5042008;28;45615;-47
2022/01/15 08:19:08;;;;;;;;;107.33;96.33;;;;;4.34;61.58;102265.53;5041650;28;45325;-47
2022/01/15 08:21:33;;;;;;;;;122.67;101.33;;;;;4.32;61.53;102261.09;5041900;28;45205;-46
2022/01/15 08:23:58;;;;;;;;;114.00;102.67;;;;;4.36;61.71;102258.63;5041361;28;45669;-50
2022/01/15 08:26:24;;;;;;;;;102.33;92.00;;;;;4.36;61.62;102249.97;5041784;28;45455;-48
2022/01/15 08:28:52;;;;;;;;;109.00;96.33;;;;;4.34;61.47;102249.00;5023682;28;45346;-45
2022/01/15 08:31:17;;;;;;;;;111.00;95.33;;;;;4.36;61.38;102252.56;5024376;28;45195;-46
2022/01/15 08:33:43;;;;;;;;;107.67;98.33;;;;;4.39;61.52;102253.56;5041495;28;45214;-48
2022/01/15 08:36:09;;;;;;;;;113.00;99.00;;;;;4.40;61.79;102251.81;5023611;28;46401;-50
2022/01/15 08:38:35;;;;;;;;;115.67;100.00;;;;;4.42;61.62;102251.91;5041263;28;45317;-46
2022/01/15 08:41:00;;;;;;;;;111.67;98.67;;;;;4.44;61.73;102255.44;5041442;28;45372;-46
2022/01/15 08:43:25;;;;;;;;;192.25;167.75;;;;;4.47;61.55;102256.44;5023207;28;45393;-46
2022/01/15 08:45:51;;;;;;;;;173.50;150.00;;;;;4.51;61.77;102252.22;5041321;28;45378;-46
2022/01/15 08:48:19;;;;;;;;;114.75;105.75;;;;;4.55;61.74;102256.69;5041155;28;45304;-46
2022/01/15 08:50:46;;;;;;;;;115.33;101.67;;;;;4.58;61.84;102258.50;5050642;28;45336;-47
2022/01/15 08:53:13;;;;;;;;;115.00;101.33;;;;;4.62;61.86;102263.03;5041004;28;45550;-46
2022/01/15 08:55:39;;;;;;;;;118.33;106.67;;;;;4.67;61.68;102269.28;5040947;28;45305;-46
2022/01/15 08:58:05;;;;;;;;;125.50;113.50;;;;;4.71;61.86;102260.72;5041120;28;45198;-46
2022/01/15 09:00:31;;;;;;;;;104.33;91.00;;;;;4.76;61.61;102268.69;5023496;28;45346;-45
2022/01/15 09:02:56;;;;;;;;;122.00;103.33;;;;;4.82;61.76;102271.53;5041124;28;45323;-46
2022/01/15 09:05:23;;;;;;;;;107.67;93.33;;;;;4.87;62.07;102270.81;5023241;28;47250;-49
2022/01/15 09:07:49;;;;;;;;;113.75;104.50;;;;;4.93;61.84;102266.66;5040477;28;45447;-46
2022/01/15 09:10:15;;;;;;;;;127.25;110.50;;;;;4.98;61.84;102273.81;5039638;28;45385;-46
2022/01/15 09:12:40;;;;;;;;;127.50;112.50;;;;;5.04;62.13;102275.72;5039682;28;45226;-46
2022/01/15 09:15:07;;;;;;;;;122.50;109.75;;;;;5.11;61.92;102282.03;5040963;28;46086;-45
2022/01/15 09:17:32;;;;;;;;;128.50;115.75;;;;;5.16;61.99;102281.34;5040823;28;45230;-45
2022/01/15 09:19:58;;;;;;;;;143.25;122.75;;;;;5.23;62.12;102279.81;5040952;28;45503;-47
2022/01/15 09:22:24;;;;;;;;;131.75;111.50;;;;;5.29;62.03;102286.94;5040843;28;45183;-47
2022/01/15 09:24:50;;;;;;;;;128.50;118.75;;;;;5.35;62.00;102285.41;5040495;28;46130;-46
2022/01/15 09:30:12;;;;;;;;;130.25;112.00;;;;;5.51;62.03;102278.97;5040833;28;45349;-50
2022/01/15 09:32:46;;;;;;;;;126.00;114.75;;;;;5.61;62.01;102285.38;5040731;28;45337;-51
2022/01/15 09:35:14;;;;;;;;;121.75;107.25;;;;;5.69;62.16;102283.88;5022604;28;47384;-48
2022/01/15 09:37:40;;;;;;;;;92.75;75.00;;;;;5.77;62.08;102281.47;5040612;28;45425;-48
2022/01/15 09:40:07;;;;;;;;;127.75;116.75;;;;;5.85;62.05;102274.78;5021983;28;45397;-47
2022/01/15 09:42:33;;;;;;;;;121.25;106.75;;;;;5.94;62.20;102278.53;5040584;28;45348;-50
2022/01/15 09:44:59;;;;;;;;;130.00;112.50;;;;;6.00;62.25;102282.22;5040397;28;45258;-47
2022/01/15 09:47:26;;;;;;;;;122.00;108.25;;;;;6.12;62.23;102279.06;5040612;28;45277;-50
2022/01/15 09:49:53;;;;;;;;;126.00;112.25;;;;;6.20;62.23;102287.16;5045757;28;45532;-48
2022/01/15 09:52:19;;;;;;;;;136.25;120.50;;;;;6.29;62.51;102282.16;5060737;28;45328;-46
2022/01/15 09:54:44;;;;;;;;;133.00;115.50;;;;;6.38;62.19;102281.53;5060024;28;45270;-46
2022/01/15 09:57:10;;;;;;;;;144.50;125.00;;;;;6.48;62.48;102278.34;5060566;28;45233;-47
2022/01/15 09:59:36;;;;;;;;;128.50;117.50;;;;;6.58;62.22;102279.47;5042341;28;45395;-47
2022/01/15 10:02:03;;;;;;;;;128.00;113.00;;;;;6.66;62.26;102282.28;5060418;28;45272;-50
2022/01/15 10:04:32;;;;;;;;;138.75;116.50;;;;;6.77;62.39;102277.38;5060168;28;46243;-48
2022/01/15 10:07:16;;;;;;;;;125.75;109.75;;;;;6.89;62.31;102282.88;5060314;28;45371;-50
2022/01/15 10:09:43;;;;;;;;;132.00;121.25;;;;;6.99;62.49;102282.28;5047477;28;45818;-47
2022/01/15 10:12:10;;;;;;;;;132.00;118.00;;;;;7.11;62.33;102278.22;5060195;28;45379;-49
2022/01/15 10:14:41;;;;;;;;;128.75;113.25;;;;;7.23;62.48;102264.53;5060185;28;46342;-50
2022/01/15 10:17:39;;;;;;;;;128.00;112.75;;;;;7.37;62.52;102264.88;5060218;28;45399;-51
2022/01/15 10:20:06;;;;;;;;;122.25;112.00;;;;;7.47;62.57;102272.97;5034275;28;45301;-48
2022/01/15 10:22:32;;;;;;;;;117.75;108.00;;;;;7.59;62.42;102269.75;5059822;28;45482;-51
2022/01/15 10:25:03;;;;;;;;;115.50;106.00;;;;;7.70;62.62;102269.09;5029032;28;45310;-49
2022/01/15 10:27:34;;;;;;;;;123.75;108.00;;;;;7.81;62.44;102265.88;5046717;28;45352;-48
2022/01/15 10:30:10;;;;;;;;;127.25;111.75;;;;;7.92;62.68;102268.75;5060167;28;45160;-50
2022/01/15 10:33:09;;;;;;;;;119.50;105.50;;;;;8.06;62.67;102255.94;5060095;28;45328;-49
2022/01/15 10:35:41;;;;;;;;;107.00;96.67;;;;;8.16;62.91;102248.25;5059749;28;45420;-47
2022/01/15 10:38:14;;;;;;;;;118.75;108.50;;;;;8.29;62.61;102252.88;5059970;28;45316;-47
2022/01/15 10:40:39;;;;;;;;;106.00;97.67;;;;;8.39;62.80;102238.22;5059585;28;45301;-48
2022/01/15 10:43:05;;;;;;;;;110.33;97.67;;;;;8.51;62.84;102238.47;5060022;28;45170;-48
2022/01/15 10:45:34;;;;;;;;;105.33;94.67;;;;;8.61;62.80;102235.16;5059942;28;45500;-48
2022/01/15 10:48:01;;;;;;;;;111.00;98.00;;;;;8.73;62.63;102234.50;5059698;28;45475;-46
2022/01/15 10:50:27;;;;;;;;;100.33;92.00;;;;;8.86;62.76;102234.72;5050975;28;45213;-50
2022/01/15 10:52:54;;;;;;;;;99.67;86.67;;;;;8.97;62.54;102227.00;5039536;28;45534;-49
2022/01/15 10:55:31;;;;;;;;;106.00;95.00;;;;;9.11;62.65;102238.63;5021318;28;47172;-51
2022/01/15 10:58:02;;;;;;;;;92.00;87.67;;;;;9.23;62.38;102230.94;5039646;28;45263;-48
2022/01/15 11:00:29;;;;;;;;;98.33;92.67;;;;;9.34;62.42;102224.97;5039703;28;45220;-50
2022/01/15 11:03:03;;;;;;;;;98.33;90.33;;;;;9.46;62.63;102221.63;5039430;28;45230;-47
2022/01/15 11:05:43;;;;;;;;;100.33;87.00;;;;;9.59;62.45;102220.94;5039461;28;46220;-47
2022/01/15 11:08:23;;;;;;;;;100.00;89.33;;;;;9.71;62.47;102222.84;5039080;28;45279;-51
2022/01/15 11:10:51;;;;;;;;;89.67;84.00;;;;;9.84;62.61;102226.53;5035582;28;45248;-48
2022/01/15 11:13:20;;;;;;;;;101.33;87.67;;;;;9.95;62.40;102211.78;5039329;28;45278;-50
2022/01/15 11:15:49;;;;;;;;;95.00;89.33;;;;;10.07;62.26;102217.19;5039130;28;46282;-46
2022/01/15 11:18:20;;;;;;;;;105.33;91.67;;;;;10.19;62.53;102211.19;5021492;28;45592;-47
2022/01/15 11:20:50;;;;;;;;;100.67;93.00;;;;;10.32;62.47;102206.06;5039184;28;45515;-49
2022/01/15 11:23:19;;;;;;;;;106.33;95.33;;;;;10.46;62.39;102209.72;5039213;28;45593;-47